sensor_id;sensor_type;location;lat;lon;timestamp;P1;durP1;ratioP1;P2;durP2;ratioP2
19754;SDS011;10036;47.812;9.274;2023-06-22T00:00:32;16.23;;;6.97;;
19754;SDS011;10036;47.812;9.274;2023-06-22T00:03:00;15.63;;;6.45;;
19754;SDS011;10036;47.812;9.274;2023-06-22T00:05:27;12.43;;;6.47;;
19754;SDS011;10036;47.812;9.274;2023-06-22T00:07:54;15.43;;;6.53;;
19754;SDS011;10036;47.812;9.274;2023-06-22T00:10:21;19.20;;;6.57;;
19754;SDS011;10036;47.812;9.274;2023-06-22T00:12:47;11.48;;;6.43;;
19754;SDS011;10036;47.812;9.274;2023-06-22T00:15:14;16.35;;;7.18;;
19754;SDS011;10036;47.812;9.274;2023-06-22T00:17:41;13.43;;;6.32;;
19754;SDS011;10036;47.812;9.274;2023-06-22T00:20:10;12.85;;;6.00;;
19754;SDS011;10036;47.812;9.274;2023-06-22T00:22:39;17.02;;;7.00;;
19754;SDS011;10036;47.812;9.274;2023-06-22T00:25:07;15.15;;;6.25;;
19754;SDS011;10036;47.812;9.274;2023-06-22T00:27:34;18.90;;;7.13;;
19754;SDS011;10036;47.812;9.274;2023-06-22T00:30:02;12.98;;;6.40;;
19754;SDS011;10036;47.812;9.274;2023-06-22T00:32:29;12.35;;;6.03;;
19754;SDS011;10036;47.812;9.274;2023-06-22T00:34:56;14.30;;;6.82;;
19754;SDS011;10036;47.812;9.274;2023-06-22T00:37:24;15.82;;;7.05;;
19754;SDS011;10036;47.812;9.274;2023-06-22T00:39:54;13.25;;;6.50;;
19754;SDS011;10036;47.812;9.274;2023-06-22T00:42:21;11.48;;;5.75;;
19754;SDS011;10036;47.812;9.274;2023-06-22T00:44:48;13.63;;;6.13;;
19754;SDS011;10036;47.812;9.274;2023-06-22T00:47:15;13.32;;;6.63;;
19754;SDS011;10036;47.812;9.274;2023-06-22T00:49:44;16.70;;;7.10;;
19754;SDS011;10036;47.812;9.274;2023-06-22T00:52:13;17.05;;;7.43;;
19754;SDS011;10036;47.812;9.274;2023-06-22T00:54:47;11.63;;;6.53;;
19754;SDS011;10036;47.812;9.274;2023-06-22T00:57:15;14.70;;;6.88;;
19754;SDS011;10036;47.812;9.274;2023-06-22T00:59:44;13.38;;;6.65;;
19754;SDS011;10036;47.812;9.274;2023-06-22T01:02:11;14.68;;;6.45;;
19754;SDS011;10036;47.812;9.274;2023-06-22T01:04:39;14.73;;;6.22;;
19754;SDS011;10036;47.812;9.274;2023-06-22T01:07:09;16.23;;;7.43;;
19754;SDS011;10036;47.812;9.274;2023-06-22T01:09:45;13.65;;;6.90;;
19754;SDS011;10036;47.812;9.274;2023-06-22T01:12:17;15.70;;;7.45;;
19754;SDS011;10036;47.812;9.274;2023-06-22T01:14:47;12.05;;;7.18;;
19754;SDS011;10036;47.812;9.274;2023-06-22T01:17:19;17.77;;;7.30;;
19754;SDS011;10036;47.812;9.274;2023-06-22T01:19:46;13.55;;;6.65;;
19754;SDS011;10036;47.812;9.274;2023-06-22T01:22:17;16.55;;;6.82;;
19754;SDS011;10036;47.812;9.274;2023-06-22T01:24:53;17.27;;;6.80;;
19754;SDS011;10036;47.812;9.274;2023-06-22T01:27:28;15.35;;;8.15;;
19754;SDS011;10036;47.812;9.274;2023-06-22T01:30:04;14.40;;;7.50;;
19754;SDS011;10036;47.812;9.274;2023-06-22T01:32:35;16.73;;;7.75;;
19754;SDS011;10036;47.812;9.274;2023-06-22T01:35:05;13.43;;;7.30;;
19754;SDS011;10036;47.812;9.274;2023-06-22T01:37:34;17.83;;;8.30;;
19754;SDS011;10036;47.812;9.274;2023-06-22T01:40:02;16.20;;;8.68;;
19754;SDS011;10036;47.812;9.274;2023-06-22T01:42:31;17.48;;;7.43;;
19754;SDS011;10036;47.812;9.274;2023-06-22T01:44:58;14.02;;;7.43;;
19754;SDS011;10036;47.812;9.274;2023-06-22T01:47:27;15.88;;;8.13;;
19754;SDS011;10036;47.812;9.274;2023-06-22T01:49:54;15.13;;;7.50;;
19754;SDS011;10036;47.812;9.274;2023-06-22T01:52:22;13.80;;;7.50;;
19754;SDS011;10036;47.812;9.274;2023-06-22T01:54:49;14.43;;;7.47;;
19754;SDS011;10036;47.812;9.274;2023-06-22T01:57:16;14.43;;;6.85;;
19754;SDS011;10036;47.812;9.274;2023-06-22T01:59:44;14.73;;;7.57;;
19754;SDS011;10036;47.812;9.274;2023-06-22T02:02:15;16.27;;;7.95;;
19754;SDS011;10036;47.812;9.274;2023-06-22T02:04:47;13.45;;;7.38;;
19754;SDS011;10036;47.812;9.274;2023-06-22T02:07:21;14.13;;;7.82;;
19754;SDS011;10036;47.812;9.274;2023-06-22T02:09:51;18.70;;;8.32;;
19754;SDS011;10036;47.812;9.274;2023-06-22T02:12:21;16.00;;;7.80;;
19754;SDS011;10036;47.812;9.274;2023-06-22T02:14:52;14.20;;;7.85;;
19754;SDS011;10036;47.812;9.274;2023-06-22T02:17:20;15.38;;;8.00;;
19754;SDS011;10036;47.812;9.274;2023-06-22T02:19:48;16.05;;;7.57;;
19754;SDS011;10036;47.812;9.274;2023-06-22T02:22:15;16.92;;;7.60;;
19754;SDS011;10036;47.812;9.274;2023-06-22T02:24:42;16.15;;;8.32;;
19754;SDS011;10036;47.812;9.274;2023-06-22T02:27:09;16.15;;;8.38;;
19754;SDS011;10036;47.812;9.274;2023-06-22T02:29:36;17.27;;;8.18;;
19754;SDS011;10036;47.812;9.274;2023-06-22T02:32:03;12.23;;;7.60;;
19754;SDS011;10036;47.812;9.274;2023-06-22T02:34:31;16.98;;;8.55;;
19754;SDS011;10036;47.812;9.274;2023-06-22T02:37:00;15.80;;;9.48;;
19754;SDS011;10036;47.812;9.274;2023-06-22T02:39:27;17.58;;;9.27;;
19754;SDS011;10036;47.812;9.274;2023-06-22T02:41:54;16.98;;;9.63;;
19754;SDS011;10036;47.812;9.274;2023-06-22T02:44:21;20.85;;;8.88;;
19754;SDS011;10036;47.812;9.274;2023-06-22T02:46:48;12.63;;;8.50;;
19754;SDS011;10036;47.812;9.274;2023-06-22T02:49:15;13.40;;;8.50;;
19754;SDS011;10036;47.812;9.274;2023-06-22T02:51:44;17.83;;;9.18;;
19754;SDS011;10036;47.812;9.274;2023-06-22T02:54:13;21.77;;;9.48;;
19754;SDS011;10036;47.812;9.274;2023-06-22T02:56:41;16.17;;;8.50;;
19754;SDS011;10036;47.812;9.274;2023-06-22T02:59:09;14.52;;;8.90;;
19754;SDS011;10036;47.812;9.274;2023-06-22T03:01:37;16.08;;;8.90;;
19754;SDS011;10036;47.812;9.274;2023-06-22T03:04:05;15.00;;;9.02;;
19754;SDS011;10036;47.812;9.274;2023-06-22T03:06:32;13.90;;;9.00;;
19754;SDS011;10036;47.812;9.274;2023-06-22T03:09:00;17.33;;;9.13;;
19754;SDS011;10036;47.812;9.274;2023-06-22T03:11:30;15.25;;;8.75;;
19754;SDS011;10036;47.812;9.274;2023-06-22T03:13:57;13.25;;;8.38;;
19754;SDS011;10036;47.812;9.274;2023-06-22T03:16:24;16.95;;;9.50;;
19754;SDS011;10036;47.812;9.274;2023-06-22T03:18:50;20.67;;;8.93;;
19754;SDS011;10036;47.812;9.274;2023-06-22T03:21:18;18.55;;;9.77;;
19754;SDS011;10036;47.812;9.274;2023-06-22T03:23:45;16.08;;;10.50;;
19754;SDS011;10036;47.812;9.274;2023-06-22T03:26:12;19.25;;;10.27;;
19754;SDS011;10036;47.812;9.274;2023-06-22T03:28:40;18.73;;;10.80;;
19754;SDS011;10036;47.812;9.274;2023-06-22T03:31:08;14.23;;;10.07;;
19754;SDS011;10036;47.812;9.274;2023-06-22T03:33:35;13.73;;;9.55;;
19754;SDS011;10036;47.812;9.274;2023-06-22T03:36:02;17.50;;;8.93;;
19754;SDS011;10036;47.812;9.274;2023-06-22T03:38:29;13.40;;;8.73;;
19754;SDS011;10036;47.812;9.274;2023-06-22T03:40:56;16.88;;;8.63;;
19754;SDS011;10036;47.812;9.274;2023-06-22T03:43:22;15.43;;;8.43;;
19754;SDS011;10036;47.812;9.274;2023-06-22T03:45:51;13.27;;;8.52;;
19754;SDS011;10036;47.812;9.274;2023-06-22T03:48:17;15.35;;;8.90;;
19754;SDS011;10036;47.812;9.274;2023-06-22T03:50:44;19.25;;;9.70;;
19754;SDS011;10036;47.812;9.274;2023-06-22T03:53:11;21.38;;;12.15;;
19754;SDS011;10036;47.812;9.274;2023-06-22T03:55:40;18.52;;;10.65;;
19754;SDS011;10036;47.812;9.274;2023-06-22T03:58:14;15.98;;;9.70;;
19754;SDS011;10036;47.812;9.274;2023-06-22T04:00:41;19.50;;;10.43;;
19754;SDS011;10036;47.812;9.274;2023-06-22T04:03:09;17.60;;;10.43;;
19754;SDS011;10036;47.812;9.274;2023-06-22T04:05:37;21.23;;;11.75;;
19754;SDS011;10036;47.812;9.274;2023-06-22T04:08:04;26.67;;;13.88;;
19754;SDS011;10036;47.812;9.274;2023-06-22T04:10:31;23.65;;;12.00;;
19754;SDS011;10036;47.812;9.274;2023-06-22T04:12:58;22.08;;;11.57;;
19754;SDS011;10036;47.812;9.274;2023-06-22T04:15:25;18.67;;;11.43;;
19754;SDS011;10036;47.812;9.274;2023-06-22T04:17:54;24.45;;;12.95;;
19754;SDS011;10036;47.812;9.274;2023-06-22T04:20:23;22.75;;;12.60;;
19754;SDS011;10036;47.812;9.274;2023-06-22T04:22:51;23.40;;;13.00;;
19754;SDS011;10036;47.812;9.274;2023-06-22T04:25:18;27.15;;;14.07;;
19754;SDS011;10036;47.812;9.274;2023-06-22T04:27:46;20.73;;;11.77;;
19754;SDS011;10036;47.812;9.274;2023-06-22T04:30:13;23.70;;;12.02;;
19754;SDS011;10036;47.812;9.274;2023-06-22T04:32:41;18.60;;;11.57;;
19754;SDS011;10036;47.812;9.274;2023-06-22T04:35:08;19.83;;;11.70;;
19754;SDS011;10036;47.812;9.274;2023-06-22T04:37:37;18.15;;;10.90;;
19754;SDS011;10036;47.812;9.274;2023-06-22T04:40:05;19.75;;;10.57;;
19754;SDS011;10036;47.812;9.274;2023-06-22T04:42:33;19.92;;;11.10;;
19754;SDS011;10036;47.812;9.274;2023-06-22T04:45:00;19.80;;;10.65;;
19754;SDS011;10036;47.812;9.274;2023-06-22T04:47:27;26.27;;;13.85;;
19754;SDS011;10036;47.812;9.274;2023-06-22T04:49:54;21.02;;;11.82;;
19754;SDS011;10036;47.812;9.274;2023-06-22T04:52:21;17.30;;;9.90;;
19754;SDS011;10036;47.812;9.274;2023-06-22T04:54:51;18.23;;;9.77;;
19754;SDS011;10036;47.812;9.274;2023-06-22T04:57:20;14.55;;;8.82;;
19754;SDS011;10036;47.812;9.274;2023-06-22T04:59:57;14.00;;;8.60;;
19754;SDS011;10036;47.812;9.274;2023-06-22T05:02:26;17.15;;;8.15;;
19754;SDS011;10036;47.812;9.274;2023-06-22T05:04:57;13.98;;;7.85;;
19754;SDS011;10036;47.812;9.274;2023-06-22T05:07:23;14.38;;;8.77;;
19754;SDS011;10036;47.812;9.274;2023-06-22T05:09:52;17.08;;;8.70;;
19754;SDS011;10036;47.812;9.274;2023-06-22T05:12:19;19.10;;;8.20;;
19754;SDS011;10036;47.812;9.274;2023-06-22T05:14:46;16.50;;;7.72;;
19754;SDS011;10036;47.812;9.274;2023-06-22T05:17:12;13.45;;;8.70;;
19754;SDS011;10036;47.812;9.274;2023-06-22T05:19:40;11.55;;;7.35;;
19754;SDS011;10036;47.812;9.274;2023-06-22T05:22:13;14.70;;;8.23;;
19754;SDS011;10036;47.812;9.274;2023-06-22T05:24:40;16.08;;;9.27;;
19754;SDS011;10036;47.812;9.274;2023-06-22T05:27:09;17.55;;;9.05;;
19754;SDS011;10036;47.812;9.274;2023-06-22T05:29:36;14.93;;;9.05;;
19754;SDS011;10036;47.812;9.274;2023-06-22T05:32:03;14.60;;;8.80;;
19754;SDS011;10036;47.812;9.274;2023-06-22T05:34:30;14.98;;;8.70;;
19754;SDS011;10036;47.812;9.274;2023-06-22T05:36:57;13.15;;;8.02;;
19754;SDS011;10036;47.812;9.274;2023-06-22T05:39:24;12.73;;;7.72;;
19754;SDS011;10036;47.812;9.274;2023-06-22T05:41:51;15.93;;;8.23;;
19754;SDS011;10036;47.812;9.274;2023-06-22T05:44:20;16.38;;;9.45;;
19754;SDS011;10036;47.812;9.274;2023-06-22T05:46:47;15.60;;;8.35;;
19754;SDS011;10036;47.812;9.274;2023-06-22T05:49:14;17.33;;;9.00;;
19754;SDS011;10036;47.812;9.274;2023-06-22T05:51:41;16.38;;;8.48;;
19754;SDS011;10036;47.812;9.274;2023-06-22T05:54:08;12.73;;;7.85;;
19754;SDS011;10036;47.812;9.274;2023-06-22T05:56:35;14.57;;;7.93;;
19754;SDS011;10036;47.812;9.274;2023-06-22T05:59:02;14.77;;;8.27;;
19754;SDS011;10036;47.812;9.274;2023-06-22T06:01:31;14.52;;;7.97;;
19754;SDS011;10036;47.812;9.274;2023-06-22T06:04:00;13.07;;;8.40;;
19754;SDS011;10036;47.812;9.274;2023-06-22T06:06:28;14.43;;;8.90;;
19754;SDS011;10036;47.812;9.274;2023-06-22T06:08:55;16.48;;;8.48;;
19754;SDS011;10036;47.812;9.274;2023-06-22T06:11:23;20.65;;;8.45;;
19754;SDS011;10036;47.812;9.274;2023-06-22T06:13:51;15.43;;;8.82;;
19754;SDS011;10036;47.812;9.274;2023-06-22T06:16:18;14.40;;;8.48;;
19754;SDS011;10036;47.812;9.274;2023-06-22T06:18:46;14.15;;;8.70;;
19754;SDS011;10036;47.812;9.274;2023-06-22T06:21:14;18.45;;;8.63;;
19754;SDS011;10036;47.812;9.274;2023-06-22T06:23:41;13.27;;;8.27;;
19754;SDS011;10036;47.812;9.274;2023-06-22T06:26:08;13.77;;;8.82;;
19754;SDS011;10036;47.812;9.274;2023-06-22T06:28:35;15.35;;;8.35;;
19754;SDS011;10036;47.812;9.274;2023-06-22T06:31:02;16.10;;;8.68;;
19754;SDS011;10036;47.812;9.274;2023-06-22T06:33:32;18.67;;;8.77;;
19754;SDS011;10036;47.812;9.274;2023-06-22T06:36:00;13.48;;;8.50;;
19754;SDS011;10036;47.812;9.274;2023-06-22T06:38:28;14.20;;;8.82;;
19754;SDS011;10036;47.812;9.274;2023-06-22T06:40:55;14.40;;;8.05;;
19754;SDS011;10036;47.812;9.274;2023-06-22T06:43:22;14.57;;;7.93;;
19754;SDS011;10036;47.812;9.274;2023-06-22T06:45:49;12.63;;;8.15;;
19754;SDS011;10036;47.812;9.274;2023-06-22T06:48:16;14.50;;;7.68;;
19754;SDS011;10036;47.812;9.274;2023-06-22T06:50:43;12.63;;;8.27;;
19754;SDS011;10036;47.812;9.274;2023-06-22T06:53:11;13.38;;;8.20;;
19754;SDS011;10036;47.812;9.274;2023-06-22T06:55:38;15.90;;;8.55;;
19754;SDS011;10036;47.812;9.274;2023-06-22T06:58:05;12.63;;;8.07;;
19754;SDS011;10036;47.812;9.274;2023-06-22T07:00:34;14.43;;;7.50;;
19754;SDS011;10036;47.812;9.274;2023-06-22T07:03:02;13.18;;;8.38;;
19754;SDS011;10036;47.812;9.274;2023-06-22T07:05:29;14.85;;;8.25;;
19754;SDS011;10036;47.812;9.274;2023-06-22T07:07:56;14.45;;;8.27;;
19754;SDS011;10036;47.812;9.274;2023-06-22T07:10:24;14.02;;;7.45;;
19754;SDS011;10036;47.812;9.274;2023-06-22T07:12:51;12.63;;;7.15;;
19754;SDS011;10036;47.812;9.274;2023-06-22T07:15:18;11.20;;;7.85;;
19754;SDS011;10036;47.812;9.274;2023-06-22T07:17:44;17.73;;;8.48;;
19754;SDS011;10036;47.812;9.274;2023-06-22T07:20:12;15.55;;;8.00;;
19754;SDS011;10036;47.812;9.274;2023-06-22T07:22:39;11.43;;;7.20;;
19754;SDS011;10036;47.812;9.274;2023-06-22T07:25:07;14.23;;;8.35;;
19754;SDS011;10036;47.812;9.274;2023-06-22T07:27:37;12.30;;;7.72;;
19754;SDS011;10036;47.812;9.274;2023-06-22T07:30:08;15.65;;;8.00;;
19754;SDS011;10036;47.812;9.274;2023-06-22T07:32:36;12.48;;;7.38;;
19754;SDS011;10036;47.812;9.274;2023-06-22T07:35:03;12.02;;;7.72;;
19754;SDS011;10036;47.812;9.274;2023-06-22T07:37:31;13.57;;;7.38;;
19754;SDS011;10036;47.812;9.274;2023-06-22T07:39:59;14.63;;;8.15;;
19754;SDS011;10036;47.812;9.274;2023-06-22T07:42:26;14.00;;;7.50;;
19754;SDS011;10036;47.812;9.274;2023-06-22T07:44:55;14.68;;;9.10;;
19754;SDS011;10036;47.812;9.274;2023-06-22T07:47:22;13.23;;;6.80;;
19754;SDS011;10036;47.812;9.274;2023-06-22T07:49:50;14.32;;;7.60;;
19754;SDS011;10036;47.812;9.274;2023-06-22T07:52:17;10.30;;;7.80;;
19754;SDS011;10036;47.812;9.274;2023-06-22T07:54:44;21.35;;;8.10;;
19754;SDS011;10036;47.812;9.274;2023-06-22T07:57:11;10.60;;;6.80;;
19754;SDS011;10036;47.812;9.274;2023-06-22T07:59:37;13.02;;;7.55;;
19754;SDS011;10036;47.812;9.274;2023-06-22T08:02:06;20.75;;;8.02;;
19754;SDS011;10036;47.812;9.274;2023-06-22T08:04:33;12.50;;;7.38;;
19754;SDS011;10036;47.812;9.274;2023-06-22T08:07:00;12.02;;;6.93;;
19754;SDS011;10036;47.812;9.274;2023-06-22T08:09:28;10.98;;;6.63;;
19754;SDS011;10036;47.812;9.274;2023-06-22T08:11:56;12.10;;;6.45;;
19754;SDS011;10036;47.812;9.274;2023-06-22T08:14:23;10.60;;;7.30;;
19754;SDS011;10036;47.812;9.274;2023-06-22T08:16:51;13.93;;;7.55;;
19754;SDS011;10036;47.812;9.274;2023-06-22T08:19:19;13.27;;;7.00;;
19754;SDS011;10036;47.812;9.274;2023-06-22T08:21:46;15.00;;;7.40;;
19754;SDS011;10036;47.812;9.274;2023-06-22T08:24:13;14.02;;;7.40;;
19754;SDS011;10036;47.812;9.274;2023-06-22T08:26:40;12.60;;;6.68;;
19754;SDS011;10036;47.812;9.274;2023-06-22T08:29:07;12.02;;;6.97;;
19754;SDS011;10036;47.812;9.274;2023-06-22T08:31:34;16.40;;;7.72;;
19754;SDS011;10036;47.812;9.274;2023-06-22T08:34:01;15.93;;;7.72;;
19754;SDS011;10036;47.812;9.274;2023-06-22T08:36:29;15.20;;;7.43;;
19754;SDS011;10036;47.812;9.274;2023-06-22T08:39:02;18.85;;;8.02;;
19754;SDS011;10036;47.812;9.274;2023-06-22T08:41:29;13.63;;;7.82;;
19754;SDS011;10036;47.812;9.274;2023-06-22T08:43:57;20.63;;;8.20;;
19754;SDS011;10036;47.812;9.274;2023-06-22T08:46:24;14.07;;;8.00;;
19754;SDS011;10036;47.812;9.274;2023-06-22T08:48:55;11.65;;;7.85;;
19754;SDS011;10036;47.812;9.274;2023-06-22T08:51:23;12.63;;;7.75;;
19754;SDS011;10036;47.812;9.274;2023-06-22T08:53:51;14.50;;;7.38;;
19754;SDS011;10036;47.812;9.274;2023-06-22T08:56:18;14.27;;;8.27;;
19754;SDS011;10036;47.812;9.274;2023-06-22T08:58:45;15.48;;;7.55;;
19754;SDS011;10036;47.812;9.274;2023-06-22T09:01:12;13.48;;;7.63;;
19754;SDS011;10036;47.812;9.274;2023-06-22T09:03:40;12.10;;;7.38;;
19754;SDS011;10036;47.812;9.274;2023-06-22T09:06:07;13.65;;;7.80;;
19754;SDS011;10036;47.812;9.274;2023-06-22T09:08:35;15.98;;;7.88;;
19754;SDS011;10036;47.812;9.274;2023-06-22T09:11:03;14.65;;;8.13;;
19754;SDS011;10036;47.812;9.274;2023-06-22T09:13:30;13.52;;;7.15;;
19754;SDS011;10036;47.812;9.274;2023-06-22T09:15:57;15.95;;;7.63;;
19754;SDS011;10036;47.812;9.274;2023-06-22T09:18:24;15.75;;;6.78;;
19754;SDS011;10036;47.812;9.274;2023-06-22T09:20:51;13.57;;;7.20;;
19754;SDS011;10036;47.812;9.274;2023-06-22T09:23:18;15.23;;;8.15;;
19754;SDS011;10036;47.812;9.274;2023-06-22T09:25:45;13.68;;;7.70;;
19754;SDS011;10036;47.812;9.274;2023-06-22T09:28:14;13.40;;;7.35;;
19754;SDS011;10036;47.812;9.274;2023-06-22T09:30:42;14.95;;;7.80;;
19754;SDS011;10036;47.812;9.274;2023-06-22T09:33:09;12.95;;;6.97;;
19754;SDS011;10036;47.812;9.274;2023-06-22T09:35:36;14.25;;;6.82;;
19754;SDS011;10036;47.812;9.274;2023-06-22T09:38:03;13.20;;;7.22;;
19754;SDS011;10036;47.812;9.274;2023-06-22T09:40:30;11.10;;;6.45;;
19754;SDS011;10036;47.812;9.274;2023-06-22T09:43:00;16.50;;;7.85;;
19754;SDS011;10036;47.812;9.274;2023-06-22T09:45:28;13.85;;;7.22;;
19754;SDS011;10036;47.812;9.274;2023-06-22T09:47:55;13.38;;;7.18;;
19754;SDS011;10036;47.812;9.274;2023-06-22T09:50:22;10.95;;;6.93;;
19754;SDS011;10036;47.812;9.274;2023-06-22T09:52:49;15.80;;;7.22;;
19754;SDS011;10036;47.812;9.274;2023-06-22T09:55:19;19.60;;;6.97;;
19754;SDS011;10036;47.812;9.274;2023-06-22T09:57:46;20.85;;;6.93;;
19754;SDS011;10036;47.812;9.274;2023-06-22T10:00:13;12.55;;;6.90;;
19754;SDS011;10036;47.812;9.274;2023-06-22T10:02:43;15.05;;;6.15;;
19754;SDS011;10036;47.812;9.274;2023-06-22T10:05:10;12.43;;;6.30;;
19754;SDS011;10036;47.812;9.274;2023-06-22T10:07:37;11.95;;;6.40;;
19754;SDS011;10036;47.812;9.274;2023-06-22T10:10:07;17.90;;;7.28;;
19754;SDS011;10036;47.812;9.274;2023-06-22T10:12:34;15.63;;;6.47;;
19754;SDS011;10036;47.812;9.274;2023-06-22T10:15:02;11.43;;;5.97;;
19754;SDS011;10036;47.812;9.274;2023-06-22T10:17:29;13.85;;;6.32;;
19754;SDS011;10036;47.812;9.274;2023-06-22T10:19:57;11.00;;;5.63;;
19754;SDS011;10036;47.812;9.274;2023-06-22T10:22:25;15.40;;;6.63;;
19754;SDS011;10036;47.812;9.274;2023-06-22T10:24:52;12.13;;;6.43;;
19754;SDS011;10036;47.812;9.274;2023-06-22T10:27:19;10.13;;;6.03;;
19754;SDS011;10036;47.812;9.274;2023-06-22T10:29:49;12.90;;;6.32;;
19754;SDS011;10036;47.812;9.274;2023-06-22T10:32:16;11.77;;;5.72;;
19754;SDS011;10036;47.812;9.274;2023-06-22T10:34:43;14.70;;;6.70;;
19754;SDS011;10036;47.812;9.274;2023-06-22T10:37:11;14.90;;;6.15;;
19754;SDS011;10036;47.812;9.274;2023-06-22T10:39:38;12.65;;;6.07;;
19754;SDS011;10036;47.812;9.274;2023-06-22T10:42:05;14.00;;;5.50;;
19754;SDS011;10036;47.812;9.274;2023-06-22T10:44:32;16.77;;;6.10;;
19754;SDS011;10036;47.812;9.274;2023-06-22T10:46:59;12.90;;;6.10;;
19754;SDS011;10036;47.812;9.274;2023-06-22T10:49:26;14.30;;;6.25;;
19754;SDS011;10036;47.812;9.274;2023-06-22T10:51:52;15.35;;;6.00;;
19754;SDS011;10036;47.812;9.274;2023-06-22T10:54:21;13.32;;;5.85;;
19754;SDS011;10036;47.812;9.274;2023-06-22T10:56:47;11.90;;;5.70;;
19754;SDS011;10036;47.812;9.274;2023-06-22T10:59:14;14.15;;;5.90;;
19754;SDS011;10036;47.812;9.274;2023-06-22T11:01:42;12.13;;;6.20;;
19754;SDS011;10036;47.812;9.274;2023-06-22T11:04:09;14.05;;;5.80;;
19754;SDS011;10036;47.812;9.274;2023-06-22T11:06:36;12.15;;;5.88;;
19754;SDS011;10036;47.812;9.274;2023-06-22T11:09:03;8.02;;;5.35;;
19754;SDS011;10036;47.812;9.274;2023-06-22T11:11:31;12.07;;;5.68;;
19754;SDS011;10036;47.812;9.274;2023-06-22T11:13:58;13.07;;;5.70;;
19754;SDS011;10036;47.812;9.274;2023-06-22T11:16:25;12.65;;;5.70;;
19754;SDS011;10036;47.812;9.274;2023-06-22T11:18:51;17.00;;;5.93;;
19754;SDS011;10036;47.812;9.274;2023-06-22T11:21:18;8.85;;;5.68;;
19754;SDS011;10036;47.812;9.274;2023-06-22T11:23:45;14.32;;;5.65;;
19754;SDS011;10036;47.812;9.274;2023-06-22T11:26:12;15.32;;;5.70;;
19754;SDS011;10036;47.812;9.274;2023-06-22T11:28:40;15.10;;;5.78;;
19754;SDS011;10036;47.812;9.274;2023-06-22T11:31:07;14.82;;;6.63;;
19754;SDS011;10036;47.812;9.274;2023-06-22T11:33:34;12.77;;;6.18;;
19754;SDS011;10036;47.812;9.274;2023-06-22T11:36:01;15.77;;;6.38;;
19754;SDS011;10036;47.812;9.274;2023-06-22T11:38:28;12.65;;;5.47;;
19754;SDS011;10036;47.812;9.274;2023-06-22T11:40:57;14.38;;;6.28;;
19754;SDS011;10036;47.812;9.274;2023-06-22T11:43:24;10.13;;;5.75;;
19754;SDS011;10036;47.812;9.274;2023-06-22T11:45:53;15.82;;;5.97;;
19754;SDS011;10036;47.812;9.274;2023-06-22T11:48:21;12.43;;;5.72;;
19754;SDS011;10036;47.812;9.274;2023-06-22T11:50:48;12.07;;;5.95;;
19754;SDS011;10036;47.812;9.274;2023-06-22T11:53:14;16.08;;;6.53;;
19754;SDS011;10036;47.812;9.274;2023-06-22T11:55:42;11.60;;;5.95;;
19754;SDS011;10036;47.812;9.274;2023-06-22T11:58:10;10.90;;;5.88;;
19754;SDS011;10036;47.812;9.274;2023-06-22T12:00:37;15.70;;;6.30;;
19754;SDS011;10036;47.812;9.274;2023-06-22T12:03:05;18.95;;;6.53;;
19754;SDS011;10036;47.812;9.274;2023-06-22T12:05:32;17.98;;;6.53;;
19754;SDS011;10036;47.812;9.274;2023-06-22T12:07:59;10.32;;;5.90;;
19754;SDS011;10036;47.812;9.274;2023-06-22T12:10:26;14.65;;;6.25;;
19754;SDS011;10036;47.812;9.274;2023-06-22T12:12:53;13.18;;;5.68;;
19754;SDS011;10036;47.812;9.274;2023-06-22T12:15:20;15.50;;;5.90;;
19754;SDS011;10036;47.812;9.274;2023-06-22T12:17:47;13.40;;;5.95;;
19754;SDS011;10036;47.812;9.274;2023-06-22T12:20:15;14.60;;;6.30;;
19754;SDS011;10036;47.812;9.274;2023-06-22T12:22:42;10.82;;;5.75;;
19754;SDS011;10036;47.812;9.274;2023-06-22T12:25:09;11.65;;;6.25;;
19754;SDS011;10036;47.812;9.274;2023-06-22T12:27:36;14.10;;;6.90;;
19754;SDS011;10036;47.812;9.274;2023-06-22T12:30:04;15.05;;;6.60;;
19754;SDS011;10036;47.812;9.274;2023-06-22T12:32:31;15.05;;;6.78;;
19754;SDS011;10036;47.812;9.274;2023-06-22T12:34:58;12.48;;;6.28;;
19754;SDS011;10036;47.812;9.274;2023-06-22T12:37:26;11.00;;;6.28;;
19754;SDS011;10036;47.812;9.274;2023-06-22T12:39:54;13.40;;;6.20;;
19754;SDS011;10036;47.812;9.274;2023-06-22T12:42:21;15.68;;;7.30;;
19754;SDS011;10036;47.812;9.274;2023-06-22T12:44:47;12.48;;;6.60;;
19754;SDS011;10036;47.812;9.274;2023-06-22T12:47:14;14.95;;;6.78;;
19754;SDS011;10036;47.812;9.274;2023-06-22T12:49:41;15.48;;;6.25;;
19754;SDS011;10036;47.812;9.274;2023-06-22T12:52:08;14.10;;;7.13;;
19754;SDS011;10036;47.812;9.274;2023-06-22T12:54:37;11.65;;;7.10;;
19754;SDS011;10036;47.812;9.274;2023-06-22T12:57:04;15.32;;;6.88;;
19754;SDS011;10036;47.812;9.274;2023-06-22T12:59:32;17.83;;;9.82;;
19754;SDS011;10036;47.812;9.274;2023-06-22T13:01:58;19.42;;;12.65;;
19754;SDS011;10036;47.812;9.274;2023-06-22T13:04:25;20.88;;;12.63;;
19754;SDS011;10036;47.812;9.274;2023-06-22T13:06:52;16.80;;;7.90;;
19754;SDS011;10036;47.812;9.274;2023-06-22T13:09:19;15.00;;;7.63;;
19754;SDS011;10036;47.812;9.274;2023-06-22T13:11:47;20.33;;;9.25;;
19754;SDS011;10036;47.812;9.274;2023-06-22T13:14:14;17.40;;;7.30;;
19754;SDS011;10036;47.812;9.274;2023-06-22T13:16:42;14.50;;;5.95;;
19754;SDS011;10036;47.812;9.274;2023-06-22T13:19:09;15.45;;;6.32;;
19754;SDS011;10036;47.812;9.274;2023-06-22T13:21:35;15.05;;;6.18;;
19754;SDS011;10036;47.812;9.274;2023-06-22T13:24:02;15.40;;;6.45;;
19754;SDS011;10036;47.812;9.274;2023-06-22T13:26:31;16.10;;;6.65;;
19754;SDS011;10036;47.812;9.274;2023-06-22T13:29:00;19.60;;;7.28;;
19754;SDS011;10036;47.812;9.274;2023-06-22T13:31:26;17.67;;;6.70;;
19754;SDS011;10036;47.812;9.274;2023-06-22T13:33:53;13.57;;;6.03;;
19754;SDS011;10036;47.812;9.274;2023-06-22T13:36:20;16.00;;;6.25;;
19754;SDS011;10036;47.812;9.274;2023-06-22T13:38:48;13.43;;;6.50;;
19754;SDS011;10036;47.812;9.274;2023-06-22T13:41:15;13.82;;;6.75;;
19754;SDS011;10036;47.812;9.274;2023-06-22T13:43:42;18.13;;;7.13;;
19754;SDS011;10036;47.812;9.274;2023-06-22T13:46:10;16.23;;;6.53;;
19754;SDS011;10036;47.812;9.274;2023-06-22T13:48:37;15.38;;;6.55;;
19754;SDS011;10036;47.812;9.274;2023-06-22T13:51:03;12.07;;;7.35;;
19754;SDS011;10036;47.812;9.274;2023-06-22T13:53:31;17.70;;;6.78;;
19754;SDS011;10036;47.812;9.274;2023-06-22T13:55:58;16.08;;;6.93;;
19754;SDS011;10036;47.812;9.274;2023-06-22T13:58:24;11.50;;;6.07;;
19754;SDS011;10036;47.812;9.274;2023-06-22T14:00:51;13.18;;;6.30;;
19754;SDS011;10036;47.812;9.274;2023-06-22T14:03:19;16.23;;;6.55;;
19754;SDS011;10036;47.812;9.274;2023-06-22T14:05:46;16.85;;;6.85;;
19754;SDS011;10036;47.812;9.274;2023-06-22T14:08:13;13.50;;;6.30;;
19754;SDS011;10036;47.812;9.274;2023-06-22T14:10:40;14.13;;;6.63;;
19754;SDS011;10036;47.812;9.274;2023-06-22T14:13:07;13.38;;;6.35;;
19754;SDS011;10036;47.812;9.274;2023-06-22T14:15:34;13.88;;;6.57;;
19754;SDS011;10036;47.812;9.274;2023-06-22T14:18:00;16.23;;;6.85;;
19754;SDS011;10036;47.812;9.274;2023-06-22T14:20:29;16.55;;;6.03;;
19754;SDS011;10036;47.812;9.274;2023-06-22T14:22:56;16.65;;;6.43;;
19754;SDS011;10036;47.812;9.274;2023-06-22T14:25:22;17.00;;;6.38;;
19754;SDS011;10036;47.812;9.274;2023-06-22T14:27:49;13.32;;;5.40;;
19754;SDS011;10036;47.812;9.274;2023-06-22T14:30:16;14.20;;;6.50;;
19754;SDS011;10036;47.812;9.274;2023-06-22T14:32:43;15.05;;;5.57;;
19754;SDS011;10036;47.812;9.274;2023-06-22T14:35:11;15.70;;;5.68;;